Time;durP1;ratioP1;P1;durP2;ratioP2;P2;SDS_P1;SDS_P2;PMS_P1;PMS_P2;Temp;Humidity;BMP_temperature;BMP_pressure;BME280_temperature;BME280_humidity;BME280_pressure;Samples;Min_cycle;Max_cycle;Signal;HPM_P1;HPM_P2
2022/03/05 00:00:51;;;;;;;17.67;8.70;;;;;;;-5.59;76.47;97593.47;5044785;28;20044;-69
2022/03/05 00:03:18;;;;;;;15.43;7.72;;;;;;;-5.69;76.69;97594.34;5034272;28;20033;-66
2022/03/05 00:05:45;;;;;;;17.02;7.72;;;;;;;-5.65;76.89;97592.22;5045193;28;20049;-69
2022/03/05 00:08:12;;;;;;;24.02;8.77;;;;;;;-5.62;76.97;97592.81;5044852;28;20053;-65
2022/03/05 00:10:39;;;;;;;14.60;7.13;;;;;;;-5.74;76.86;97588.66;5041843;28;20341;-66
2022/03/05 00:13:06;;;;;;;15.95;8.05;;;;;;;-5.83;77.58;97592.16;5025765;28;20053;-69
2022/03/05 00:15:32;;;;;;;20.67;8.77;;;;;;;-5.91;78.00;97587.56;5025905;28;20038;-65
2022/03/05 00:17:59;;;;;;;19.17;8.55;;;;;;;-5.96;77.70;97587.16;5036077;28;20041;-67
2022/03/05 00:20:26;;;;;;;22.58;9.85;;;;;;;-5.93;78.35;97600.09;5043539;28;20099;-68
2022/03/05 00:22:53;;;;;;;18.52;7.88;;;;;;;-5.92;78.67;97594.66;5033076;28;20048;-69
2022/03/05 00:25:22;;;;;;;23.73;10.20;;;;;;;-5.78;77.63;97600.47;5043619;28;20045;-68
2022/03/05 00:27:48;;;;;;;16.77;8.40;;;;;;;-5.87;77.82;97597.72;5030719;28;20103;-65
2022/03/05 00:30:16;;;;;;;21.27;9.82;;;;;;;-5.94;77.96;97601.88;5028562;28;20048;-69
2022/03/05 00:32:43;;;;;;;17.60;8.43;;;;;;;-5.97;77.87;97596.06;5029113;28;20127;-68
2022/03/05 00:35:11;;;;;;;19.70;8.82;;;;;;;-5.93;77.60;97589.53;5024045;28;20119;-69
2022/03/05 00:37:38;;;;;;;16.27;6.93;;;;;;;-6.05;77.86;97594.16;5030437;28;20456;-65
2022/03/05 00:40:05;;;;;;;20.80;8.70;;;;;;;-6.06;77.66;97587.22;5042791;28;20587;-68
2022/03/05 00:42:34;;;;;;;16.95;6.90;;;;;;;-6.02;78.00;97593.84;5026451;28;20065;-70
2022/03/05 00:45:00;;;;;;;14.85;7.68;;;;;;;-6.05;78.38;97596.81;5033149;28;20053;-68
2022/03/05 00:47:27;;;;;;;16.90;7.30;;;;;;;-6.01;78.15;97592.88;5039072;28;20411;-67
2022/03/05 00:49:54;;;;;;;16.92;7.40;;;;;;;-6.13;77.79;97594.84;5045731;28;20086;-66
2022/03/05 00:52:22;;;;;;;15.80;7.32;;;;;;;-6.28;78.40;97594.44;5037798;28;20037;-68
2022/03/05 00:54:48;;;;;;;27.33;11.18;;;;;;;-6.21;78.75;97598.19;5035380;28;20041;-69
2022/03/05 00:57:15;;;;;;;21.58;11.88;;;;;;;-6.20;78.34;97602.50;5046194;28;20056;-69
2022/03/05 00:59:42;;;;;;;15.63;8.38;;;;;;;-6.16;78.26;97595.16;5044631;28;20041;-66
2022/03/05 01:02:08;;;;;;;15.43;7.13;;;;;;;-6.20;78.45;97597.22;5044594;28;20645;-69
2022/03/05 01:04:35;;;;;;;16.77;7.93;;;;;;;-6.27;78.23;97601.38;5030570;28;20049;-67
2022/03/05 01:07:03;;;;;;;16.38;6.85;;;;;;;-6.24;78.73;97595.84;5035136;28;20055;-67
2022/03/05 01:09:30;;;;;;;16.15;8.48;;;;;;;-6.20;78.56;97601.69;5043548;28;20052;-66
2022/03/05 01:11:56;;;;;;;18.50;8.93;;;;;;;-6.16;78.43;97590.69;5035108;28;20170;-66
2022/03/05 01:14:23;;;;;;;15.40;7.53;;;;;;;-6.21;78.21;97586.81;5032317;28;20041;-68
2022/03/05 01:16:50;;;;;;;15.88;7.10;;;;;;;-6.23;78.04;97592.22;5027988;28;20037;-65
2022/03/05 01:19:17;;;;;;;16.55;7.88;;;;;;;-6.37;78.13;97595.28;5041046;28;20052;-70
2022/03/05 01:21:43;;;;;;;13.88;7.10;;;;;;;-6.47;78.71;97587.38;4999281;28;1091274;-65
2022/03/05 01:24:10;;;;;;;14.65;7.38;;;;;;;-6.42;78.48;97588.63;5045852;28;20037;-67
2022/03/05 01:26:36;;;;;;;11.27;6.00;;;;;;;-6.47;78.86;97584.75;5040514;28;20044;-66
2022/03/05 01:29:03;;;;;;;20.83;8.38;;;;;;;-6.30;78.40;97584.03;5047024;28;20045;-64
2022/03/05 01:31:29;;;;;;;12.13;6.20;;;;;;;-6.32;77.84;97583.38;5034165;28;20044;-66
2022/03/05 01:33:56;;;;;;;16.35;7.63;;;;;;;-6.36;78.27;97581.13;5027233;28;20497;-67
2022/03/05 01:36:22;;;;;;;14.15;7.10;;;;;;;-6.33;78.19;97586.13;5043975;28;20048;-65
2022/03/05 01:38:49;;;;;;;14.57;7.03;;;;;;;-6.33;77.89;97580.84;5036510;28;20588;-69
2022/03/05 01:41:16;;;;;;;13.88;7.82;;;;;;;-6.29;78.04;97580.47;5032182;28;20090;-65
2022/03/05 01:43:49;;;;;;;17.70;7.85;;;;;;;-6.21;77.92;97584.19;5043770;28;20037;-67
2022/03/05 01:46:30;;;;;;;11.63;6.47;;;;;;;-6.19;77.64;97579.63;5027991;28;20072;-66
2022/03/05 01:48:57;;;;;;;13.30;7.05;;;;;;;-6.20;77.52;97576.13;5034584;28;20132;-67
2022/03/05 01:51:24;;;;;;;16.17;8.00;;;;;;;-6.27;77.22;97575.00;5042254;28;20118;-68
2022/03/05 01:53:50;;;;;;;15.02;5.80;;;;;;;-6.22;77.40;97580.72;5038760;28;20045;-68
2022/03/05 01:56:17;;;;;;;15.48;8.10;;;;;;;-6.29;77.62;97580.47;5037038;28;20554;-65
2022/03/05 01:58:45;;;;;;;14.90;5.40;;;;;;;-6.29;77.61;97579.63;5043584;28;20036;-68
2022/03/05 02:01:12;;;;;;;12.25;5.82;;;;;;;-6.26;77.06;97576.72;5036433;28;20401;-69
2022/03/05 02:03:40;;;;;;;14.38;6.13;;;;;;;-6.34;77.68;97574.75;5039372;28;20107;-65
2022/03/05 02:06:07;;;;;;;14.27;7.38;;;;;;;-6.41;77.25;97577.09;5036340;28;20536;-67
2022/03/05 02:08:34;;;;;;;15.73;6.78;;;;;;;-6.35;77.15;97574.91;5041704;28;20572;-66
2022/03/05 02:11:01;;;;;;;15.93;7.35;;;;;;;-6.36;77.68;97576.69;5044627;28;20048;-67
2022/03/05 02:13:27;;;;;;;17.98;8.20;;;;;;;-6.30;77.54;97576.13;5044271;28;20045;-65
2022/03/05 02:15:55;;;;;;;12.80;5.80;;;;;;;-6.27;77.25;97581.13;5027691;28;20048;-64
2022/03/05 02:18:23;;;;;;;11.75;6.20;;;;;;;-6.16;77.12;97577.50;5028009;28;20029;-68
2022/03/05 02:20:51;;;;;;;19.42;6.75;;;;;;;-6.02;76.23;97583.28;5026586;28;20056;-67
2022/03/05 02:23:18;;;;;;;14.63;6.40;;;;;;;-6.18;76.35;97579.47;5029048;28;20680;-64
2022/03/05 02:25:52;;;;;;;11.98;6.75;;;;;;;-6.42;77.45;97587.78;5045651;28;20051;-65
2022/03/05 02:28:20;;;;;;;14.70;6.15;;;;;;;-6.60;77.72;97582.38;5031549;28;20044;-69
2022/03/05 02:30:47;;;;;;;18.25;7.63;;;;;;;-6.56;77.92;97589.03;5025492;28;20042;-68
2022/03/05 02:33:14;;;;;;;12.98;6.88;;;;;;;-6.89;78.71;97584.03;5028222;28;20470;-67
2022/03/05 02:35:43;;;;;;;13.25;6.28;;;;;;;-7.03;79.52;97579.97;5030855;28;20042;-67
2022/03/05 02:38:15;;;;;;;14.32;5.63;;;;;;;-6.95;79.81;97577.50;5030568;28;20048;-66
2022/03/05 02:40:43;;;;;;;16.10;7.32;;;;;;;-6.85;79.35;97579.31;5038826;28;20033;-68
2022/03/05 02:43:10;;;;;;;13.75;6.50;;;;;;;-6.88;79.54;97574.31;5025500;28;20053;-69
2022/03/05 02:45:37;;;;;;;20.20;7.10;;;;;;;-6.84;79.55;97571.28;5037440;28;20033;-66
2022/03/05 02:48:08;;;;;;;12.75;6.05;;;;;;;-6.72;78.80;97571.97;5043826;28;20091;-67
2022/03/05 02:50:35;;;;;;;18.77;8.60;;;;;;;-6.70;78.65;97569.19;5036587;28;20529;-65
2022/03/05 02:53:02;;;;;;;14.25;7.72;;;;;;;-6.67;78.76;97575.03;5041008;28;20505;-67
2022/03/05 02:55:29;;;;;;;18.77;5.68;;;;;;;-6.71;78.42;97571.00;5038191;28;20041;-68
2022/03/05 02:57:56;;;;;;;15.05;6.35;;;;;;;-6.76;78.75;97562.69;5044737;28;20045;-68
2022/03/05 03:00:23;;;;;;;17.63;6.75;;;;;;;-6.79;78.56;97570.84;5057537;28;20725;-65
2022/03/05 03:02:50;;;;;;;11.50;5.18;;;;;;;-6.85;78.63;97572.25;5038249;28;20048;-67
2022/03/05 03:05:17;;;;;;;12.43;6.32;;;;;;;-6.94;78.82;97571.25;5027645;28;20500;-66
2022/03/05 03:07:44;;;;;;;15.90;6.03;;;;;;;-6.89;78.62;97572.66;5038979;28;20037;-69
2022/03/05 03:10:12;;;;;;;14.95;6.60;;;;;;;-6.79;78.24;97576.97;5029241;28;20048;-65
2022/03/05 03:12:39;;;;;;;13.00;6.47;;;;;;;-6.72;78.25;97579.88;5027268;28;20049;-68
2022/03/05 03:15:08;;;;;;;12.45;5.63;;;;;;;-6.81;78.32;97575.44;5030298;28;20785;-66
2022/03/05 03:17:48;;;;;;;13.10;5.72;;;;;;;-6.80;78.48;97574.44;5039611;28;20052;-67
2022/03/05 03:20:25;;;;;;;14.25;6.85;;;;;;;-6.88;78.27;97582.19;5044975;28;20044;-65
2022/03/05 03:22:52;;;;;;;10.77;5.53;;;;;;;-7.03;78.25;97582.59;5030501;28;20045;-67
2022/03/05 03:25:19;;;;;;;14.20;6.95;;;;;;;-7.14;79.50;97582.69;5043817;28;20103;-67
2022/03/05 03:27:46;;;;;;;14.55;6.88;;;;;;;-7.03;79.19;97574.69;5038303;28;20451;-64
2022/03/05 03:30:14;;;;;;;13.32;6.72;;;;;;;-6.96;78.73;97581.06;5034865;28;20037;-65
2022/03/05 03:32:41;;;;;;;12.98;6.35;;;;;;;-6.98;78.41;97583.00;5040330;28;20045;-67
2022/03/05 03:35:10;;;;;;;16.08;6.35;;;;;;;-7.05;78.18;97579.25;5034004;28;20686;-64
2022/03/05 03:37:36;;;;;;;15.65;5.50;;;;;;;-7.08;78.98;97582.16;5026035;28;20045;-68
2022/03/05 03:40:06;;;;;;;10.15;4.57;;;;;;;-7.20;79.07;97584.91;5035848;28;20297;-70
2022/03/05 03:42:33;;;;;;;11.82;6.05;;;;;;;-6.94;79.68;97573.88;5044166;28;20420;-66
2022/03/05 03:45:00;;;;;;;11.65;5.70;;;;;;;-7.01;77.85;97582.47;5035324;28;20448;-67
2022/03/05 03:47:27;;;;;;;13.00;5.40;;;;;;;-6.90;78.08;97579.69;5036692;28;20049;-65
2022/03/05 03:49:53;;;;;;;14.13;6.50;;;;;;;-7.00;78.01;97589.38;5026253;28;20045;-70
2022/03/05 03:52:20;;;;;;;12.15;7.07;;;;;;;-7.13;78.45;97589.63;5023809;28;20049;-69
2022/03/05 03:54:48;;;;;;;14.43;5.57;;;;;;;-7.12;78.77;97592.13;5025502;28;20045;-67
2022/03/05 03:57:15;;;;;;;16.52;6.38;;;;;;;-7.23;79.43;97590.41;5041814;28;20412;-69
2022/03/05 03:59:42;;;;;;;11.65;6.22;;;;;;;-7.35;79.25;97589.69;5047009;28;20175;-68
2022/03/05 04:02:09;;;;;;;10.10;6.07;;;;;;;-7.30;79.53;97589.28;5039224;28;20045;-68
2022/03/05 04:04:36;;;;;;;9.85;5.97;;;;;;;-7.36;79.82;97585.41;5027362;28;20041;-67
2022/03/05 04:09:49;;;;;;;10.43;5.72;;;;;;;-7.19;79.31;97589.19;5032839;28;20428;-65
2022/03/05 04:12:16;;;;;;;12.30;5.63;;;;;;;-7.06;78.94;97588.97;5043879;28;20036;-67
2022/03/05 04:14:42;;;;;;;13.93;6.45;;;;;;;-7.11;78.61;97598.22;5042124;28;20479;-69
2022/03/05 04:17:09;;;;;;;9.23;4.43;;;;;;;-7.08;78.74;97590.88;5028739;28;20045;-66
2022/03/05 04:19:36;;;;;;;14.45;6.32;;;;;;;-7.07;78.79;97592.53;5030106;28;20053;-69
2022/03/05 04:22:03;;;;;;;14.88;6.43;;;;;;;-7.12;78.83;97594.75;5028664;28;20072;-68
2022/03/05 04:24:29;;;;;;;7.68;4.70;;;;;;;-7.08;78.78;97590.06;5034882;28;20281;-66
2022/03/05 04:26:56;;;;;;;9.20;4.85;;;;;;;-6.89;78.15;97591.06;5029259;28;20049;-68
2022/03/05 04:29:23;;;;;;;11.52;6.10;;;;;;;-6.89;78.24;97591.91;5030424;28;20041;-68
2022/03/05 04:31:50;;;;;;;10.82;5.88;;;;;;;-6.90;77.45;97600.75;5039510;28;20045;-66
2022/03/05 04:34:17;;;;;;;17.98;6.53;;;;;;;-7.13;78.40;97597.50;5045266;28;20600;-66
2022/03/05 04:36:43;;;;;;;11.82;6.72;;;;;;;-7.40;79.13;97598.94;5043158;28;20052;-67
2022/03/05 04:39:10;;;;;;;11.48;5.88;;;;;;;-7.41;79.75;97594.66;5041472;28;20574;-65
2022/03/05 04:41:37;;;;;;;13.25;5.20;;;;;;;-7.26;79.37;97595.13;5027668;28;20045;-66
2022/03/05 04:44:04;;;;;;;12.38;5.68;;;;;;;-7.11;78.36;97601.66;5038534;28;20041;-68
2022/03/05 04:46:31;;;;;;;16.77;6.95;;;;;;;-6.99;78.47;97604.22;5044155;28;20099;-66
2022/03/05 04:48:59;;;;;;;14.75;7.85;;;;;;;-7.24;78.48;97606.34;5027795;28;20144;-69
2022/03/05 04:51:26;;;;;;;10.20;5.22;;;;;;;-7.45;79.88;97608.06;5037816;28;20389;-66
2022/03/05 04:53:52;;;;;;;11.32;6.18;;;;;;;-7.44;79.41;97596.56;5045808;28;20048;-66
2022/03/05 04:56:19;;;;;;;10.35;4.78;;;;;;;-7.47;79.84;97609.16;5030449;28;20103;-66
2022/03/05 04:58:46;;;;;;;10.38;4.85;;;;;;;-7.37;79.37;97604.75;5038237;28;20561;-68
2022/03/05 05:01:12;;;;;;;9.95;5.50;;;;;;;-7.41;79.45;97611.25;5058321;28;20087;-66
2022/03/05 05:03:39;;;;;;;14.43;5.50;;;;;;;-7.46;79.47;97611.66;5042641;28;20043;-66
2022/03/05 05:06:06;;;;;;;12.70;6.75;;;;;;;-7.45;80.02;97615.97;5035207;28;20103;-67
2022/03/05 05:08:33;;;;;;;19.52;7.57;;;;;;;-7.49;79.55;97617.19;5038178;28;20482;-66
2022/03/05 05:10:59;;;;;;;16.88;6.63;;;;;;;-7.52;79.88;97611.38;5033237;28;20037;-69
2022/03/05 05:13:26;;;;;;;13.05;5.95;;;;;;;-7.47;79.92;97614.44;5045754;28;20424;-68
2022/03/05 05:15:54;;;;;;;12.48;6.75;;;;;;;-7.46;79.71;97614.31;5040774;28;20053;-68
2022/03/05 05:18:20;;;;;;;12.13;5.82;;;;;;;-7.50;79.71;97618.16;5038027;28;20084;-69
2022/03/05 05:20:47;;;;;;;14.85;6.43;;;;;;;-7.55;79.59;97615.09;5026053;28;20529;-65
2022/03/05 05:23:14;;;;;;;19.98;6.03;;;;;;;-7.61;79.21;97621.69;5028275;28;20056;-65
2022/03/05 05:25:41;;;;;;;12.45;6.05;;;;;;;-7.61;80.08;97626.13;5036037;28;20075;-66
2022/03/05 05:28:08;;;;;;;14.90;7.93;;;;;;;-7.53;80.00;97615.78;5031876;28;20413;-68
2022/03/05 05:30:34;;;;;;;14.20;6.78;;;;;;;-7.61;79.84;97624.34;5036089;28;20464;-69
2022/03/05 05:33:01;;;;;;;23.60;9.18;;;;;;;-7.74;80.06;97621.91;5033918;28;20046;-65
2022/03/05 05:35:28;;;;;;;11.13;6.95;;;;;;;-7.71;80.59;97626.06;5034314;28;20447;-68
2022/03/05 05:37:55;;;;;;;12.32;5.07;;;;;;;-7.66;80.69;97630.94;5036939;28;20045;-69
2022/03/05 05:40:21;;;;;;;17.35;6.60;;;;;;;-7.49;80.82;97632.16;5027311;28;20038;-66
2022/03/05 05:42:48;;;;;;;16.50;5.93;;;;;;;-7.35;79.41;97631.78;5026135;28;20647;-64
2022/03/05 05:45:14;;;;;;;15.50;6.00;;;;;;;-7.35;79.18;97637.06;5039864;28;20052;-66
2022/03/05 05:47:41;;;;;;;11.73;5.47;;;;;;;-7.47;79.26;97640.72;5029816;28;20067;-66
2022/03/05 05:50:08;;;;;;;15.10;6.10;;;;;;;-7.45;80.42;97636.16;5037663;28;20053;-65
2022/03/05 05:52:35;;;;;;;10.32;5.30;;;;;;;-7.41;79.59;97645.47;5039540;28;20033;-68
2022/03/05 05:55:02;;;;;;;11.50;7.38;;;;;;;-7.47;79.55;97651.25;5044723;28;20049;-66
2022/03/05 05:57:29;;;;;;;12.73;6.45;;;;;;;-7.34;79.56;97656.31;5041294;28;20109;-67
2022/03/05 05:59:55;;;;;;;12.27;5.78;;;;;;;-7.53;78.86;97643.91;5038084;28;20060;-69
2022/03/05 06:02:23;;;;;;;12.38;6.43;;;;;;;-7.82;80.25;97653.25;5041214;28;20041;-66
2022/03/05 06:04:50;;;;;;;11.27;5.35;;;;;;;-7.76;80.49;97660.66;5040083;28;20501;-65
2022/03/05 06:07:16;;;;;;;14.10;7.20;;;;;;;-7.68;79.95;97651.28;5039904;28;20064;-67
2022/03/05 06:09:43;;;;;;;11.48;6.53;;;;;;;-7.52;79.64;97658.72;5041436;28;20057;-69
2022/03/05 06:12:13;;;;;;;11.80;6.07;;;;;;;-7.54;79.79;97658.00;5035726;28;20559;-70
2022/03/05 06:14:41;;;;;;;13.13;7.13;;;;;;;-7.50;80.21;97659.41;5040230;28;20262;-65
2022/03/05 06:17:08;;;;;;;9.98;4.25;;;;;;;-7.44;79.97;97664.16;5030426;28;20049;-66
2022/03/05 06:19:35;;;;;;;9.60;4.55;;;;;;;-7.31;79.22;97663.94;5033500;28;20056;-66
2022/03/05 06:22:03;;;;;;;9.77;5.55;;;;;;;-7.24;78.93;97669.50;5043466;28;20045;-65
2022/03/05 06:24:29;;;;;;;9.32;5.28;;;;;;;-7.30;79.18;97662.97;5057881;28;20044;-65
2022/03/05 06:26:56;;;;;;;13.02;6.63;;;;;;;-7.25;79.10;97675.72;5023349;28;20041;-68
2022/03/05 06:29:22;;;;;;;16.25;7.82;;;;;;;-7.24;78.67;97667.72;5028157;28;20107;-67
2022/03/05 06:31:49;;;;;;;12.75;6.57;;;;;;;-7.32;79.27;97665.75;5028529;28;20524;-67
2022/03/05 06:34:16;;;;;;;13.38;6.13;;;;;;;-7.39;79.70;97669.00;5024064;28;20444;-66
2022/03/05 06:36:42;;;;;;;10.10;5.60;;;;;;;-7.28;79.66;97663.66;5036989;28;20041;-69
2022/03/05 06:39:09;;;;;;;13.05;6.40;;;;;;;-7.32;78.87;97670.16;5036557;28;20610;-66
2022/03/05 06:41:35;;;;;;;12.52;6.78;;;;;;;-7.33;79.21;97673.75;5039364;28;20055;-67
2022/03/05 06:44:02;;;;;;;8.00;5.07;;;;;;;-7.25;79.40;97683.63;5036877;28;20049;-66
2022/03/05 06:46:28;;;;;;;8.90;5.88;;;;;;;-7.14;79.15;97688.81;5041608;28;20048;-68
2022/03/05 06:48:55;;;;;;;10.70;6.40;;;;;;;-7.09;78.67;97686.63;5037861;28;20053;-67
2022/03/05 06:51:21;;;;;;;18.73;6.95;;;;;;;-7.07;79.20;97691.75;5039990;28;20049;-67
2022/03/05 06:53:48;;;;;;;13.98;6.20;;;;;;;-7.02;79.15;97689.56;5041456;28;20045;-67
2022/03/05 06:56:15;;;;;;;12.20;6.10;;;;;;;-6.90;78.62;97695.53;5042580;28;20057;-65
2022/03/05 06:58:41;;;;;;;12.27;5.65;;;;;;;-6.81;78.26;97694.75;5035340;28;20048;-65
2022/03/05 07:01:08;;;;;;;15.48;7.68;;;;;;;-6.71;78.64;97704.50;5036211;28;20037;-66
2022/03/05 07:03:35;;;;;;;17.95;8.77;;;;;;;-6.72;78.52;97698.38;5029226;28;20558;-66
2022/03/05 07:06:01;;;;;;;16.15;8.02;;;;;;;-6.69;78.48;97695.50;5033006;28;20045;-68
2022/03/05 07:08:28;;;;;;;15.18;7.82;;;;;;;-6.54;78.63;97706.50;5030378;28;20043;-67
2022/03/05 07:10:54;;;;;;;16.75;7.15;;;;;;;-6.41;78.26;97702.78;5032552;28;20107;-66
2022/03/05 07:13:21;;;;;;;13.70;7.47;;;;;;;-6.37;78.58;97709.44;5030584;28;20127;-67
2022/03/05 07:15:48;;;;;;;12.90;7.00;;;;;;;-6.29;78.49;97703.47;5029635;28;20087;-66
2022/03/05 07:18:14;;;;;;;13.60;7.00;;;;;;;-6.12;77.88;97701.16;5042521;28;20095;-67
2022/03/05 07:20:42;;;;;;;17.92;8.50;;;;;;;-6.00;78.17;97700.81;5032600;28;20041;-66
2022/03/05 07:23:08;;;;;;;14.95;7.05;;;;;;;-5.81;78.23;97703.63;5023288;28;20115;-67
2022/03/05 07:25:39;;;;;;;25.10;9.98;;;;;;;-5.71;78.92;97703.63;5034511;28;20487;-64
2022/03/05 07:28:08;;;;;;;15.40;7.10;;;;;;;-5.48;79.03;97707.59;5050732;28;20048;-69
2022/03/05 07:30:37;;;;;;;15.20;7.72;;;;;;;-5.29;77.51;97698.00;5039919;28;20120;-65
2022/03/05 07:33:04;;;;;;;11.90;7.43;;;;;;;-5.19;77.79;97697.97;5032558;28;20050;-64
2022/03/05 07:35:31;;;;;;;14.73;7.80;;;;;;;-5.00;77.46;97697.09;5025436;28;20045;-66
2022/03/05 07:37:57;;;;;;;23.42;7.25;;;;;;;-4.82;77.40;97704.25;5034239;28;20068;-66
2022/03/05 07:40:24;;;;;;;14.18;6.80;;;;;;;-4.65;78.06;97691.25;5033555;28;20053;-64
2022/03/05 07:42:50;;;;;;;14.00;7.35;;;;;;;-4.32;78.30;97703.00;5044666;28;20055;-69
2022/03/05 07:45:17;;;;;;;16.38;7.45;;;;;;;-3.80;74.29;97701.53;5032191;28;20045;-65
2022/03/05 07:47:44;;;;;;;16.85;8.93;;;;;;;-3.59;73.72;97694.22;5039096;28;20682;-65
2022/03/05 07:50:11;;;;;;;14.30;7.60;;;;;;;-3.22;71.84;97698.47;5044340;28;20570;-70
2022/03/05 07:52:37;;;;;;;16.67;8.07;;;;;;;-2.95;70.69;97696.63;5034175;28;20056;-67
2022/03/05 07:55:04;;;;;;;20.27;7.82;;;;;;;-2.84;70.06;97697.38;5030001;28;20564;-66
2022/03/05 07:57:34;;;;;;;18.13;8.73;;;;;;;-2.69;70.37;97702.91;5030150;28;20463;-67
2022/03/05 08:00:03;;;;;;;18.55;8.70;;;;;;;-2.64;70.21;97700.59;5046213;28;20757;-69
2022/03/05 08:02:47;;;;;;;17.55;8.70;;;;;;;-2.52;69.78;97699.34;5046080;28;20523;-67
2022/03/05 08:05:14;;;;;;;18.08;8.18;;;;;;;-2.44;69.60;97693.22;5049010;28;20064;-66
2022/03/05 08:07:40;;;;;;;25.73;9.20;;;;;;;-2.31;69.46;97706.03;5048068;28;20497;-66
2022/03/05 08:10:07;;;;;;;18.33;8.98;;;;;;;-2.18;68.45;97699.44;5030510;28;20045;-68
2022/03/05 08:12:35;;;;;;;24.48;10.27;;;;;;;-2.07;68.43;97703.59;5043115;28;20064;-66
2022/03/05 08:15:03;;;;;;;20.60;9.73;;;;;;;-1.92;68.00;97703.81;5039270;28;20102;-67
2022/03/05 08:17:30;;;;;;;18.20;10.32;;;;;;;-1.78;67.95;97705.81;5040068;28;20041;-68
2022/03/05 08:19:57;;;;;;;15.55;8.20;;;;;;;-1.69;67.26;97706.66;5037880;28;20041;-66
2022/03/05 08:22:24;;;;;;;17.52;9.63;;;;;;;-1.61;67.15;97701.34;5029617;28;20044;-66
2022/03/05 08:24:51;;;;;;;20.63;10.30;;;;;;;-1.53;66.90;97700.50;5046567;28;20041;-65
2022/03/05 08:27:17;;;;;;;18.77;9.18;;;;;;;-1.36;66.24;97703.97;5026186;28;20053;-70
2022/03/05 08:29:44;;;;;;;26.05;11.65;;;;;;;-1.16;65.67;97697.47;5031467;28;20669;-67
2022/03/05 08:32:11;;;;;;;23.08;10.02;;;;;;;-1.05;65.21;97700.63;5039754;28;20076;-66
2022/03/05 08:34:38;;;;;;;19.27;10.95;;;;;;;-0.97;64.38;97699.78;5049685;28;20409;-67
2022/03/05 08:37:05;;;;;;;21.70;10.50;;;;;;;-0.84;64.67;97706.38;5040755;28;20123;-66
2022/03/05 08:39:31;;;;;;;22.42;10.10;;;;;;;-0.74;64.48;97706.19;5044228;28;20045;-67
2022/03/05 08:41:58;;;;;;;23.15;10.85;;;;;;;-0.62;63.88;97707.50;5039201;28;20040;-68
2022/03/05 08:44:25;;;;;;;23.02;9.65;;;;;;;-0.54;63.89;97709.28;5040568;28;20500;-64
2022/03/05 08:46:52;;;;;;;20.98;10.10;;;;;;;-0.41;63.39;97711.38;5026446;28;20104;-65
2022/03/05 08:49:18;;;;;;;18.65;8.23;;;;;;;-0.35;63.43;97708.03;5027562;28;20060;-69
2022/03/05 08:51:45;;;;;;;20.65;9.63;;;;;;;-0.29;63.55;97707.34;5027827;28;20049;-64
2022/03/05 08:54:11;;;;;;;22.77;10.10;;;;;;;-0.18;63.09;97702.63;5033753;28;20053;-65
2022/03/05 08:56:38;;;;;;;22.00;10.60;;;;;;;-0.16;61.97;97700.63;5030393;28;20045;-67
2022/03/05 08:59:04;;;;;;;15.70;8.70;;;;;;;-0.12;62.08;97704.59;5043768;28;20239;-69
2022/03/05 09:01:32;;;;;;;20.20;8.95;;;;;;;-0.10;62.26;97699.94;5050891;28;20044;-68
2022/03/05 09:03:59;;;;;;;15.90;7.55;;;;;;;0.02;61.66;97703.00;5044135;28;20099;-67
2022/03/05 09:06:26;;;;;;;21.35;9.88;;;;;;;0.06;61.73;97703.47;5032506;28;20041;-65
2022/03/05 09:08:52;;;;;;;17.80;7.93;;;;;;;0.11;61.81;97696.63;5046751;28;20073;-67
2022/03/05 09:11:19;;;;;;;22.15;10.38;;;;;;;0.17;61.63;97696.91;5027490;28;20056;-65
2022/03/05 09:13:45;;;;;;;19.48;9.65;;;;;;;0.24;61.57;97692.56;5027405;28;20037;-67
2022/03/05 09:16:12;;;;;;;22.58;11.00;;;;;;;0.27;61.47;97694.88;5043339;28;20041;-65
2022/03/05 09:18:39;;;;;;;17.13;8.38;;;;;;;0.36;60.88;97693.78;5028119;28;20077;-70
2022/03/05 09:21:05;;;;;;;21.95;9.02;;;;;;;0.42;60.69;97686.94;5028704;28;20048;-66
2022/03/05 09:23:32;;;;;;;22.70;10.18;;;;;;;0.43;60.61;97687.75;5047185;28;20063;-65
2022/03/05 09:25:59;;;;;;;18.73;9.65;;;;;;;0.58;59.64;97683.28;5033953;28;20057;-68
2022/03/05 09:28:26;;;;;;;23.73;9.95;;;;;;;0.69;59.42;97689.19;5027910;28;20049;-66
2022/03/05 09:30:52;;;;;;;17.90;8.27;;;;;;;0.73;59.06;97693.97;5028692;28;20037;-65
2022/03/05 09:33:22;;;;;;;19.95;10.38;;;;;;;0.72;59.37;97688.84;5041343;28;20041;-67
2022/03/05 09:35:49;;;;;;;16.90;8.65;;;;;;;0.81;57.97;97686.94;5042486;28;20128;-65
2022/03/05 09:38:16;;;;;;;18.23;8.52;;;;;;;0.94;57.41;97691.63;5032617;28;20056;-65
2022/03/05 09:40:43;;;;;;;17.75;8.05;;;;;;;1.00;57.34;97689.06;5041370;28;20057;-67
2022/03/05 09:43:09;;;;;;;16.75;8.13;;;;;;;1.09;57.94;97678.31;5027524;28;20038;-67
2022/03/05 09:45:37;;;;;;;19.65;8.02;;;;;;;1.16;55.43;97685.41;5026870;28;20049;-66
2022/03/05 09:48:04;;;;;;;16.85;8.15;;;;;;;1.16;55.61;97682.75;5040805;28;20056;-70
2022/03/05 09:50:33;;;;;;;18.40;7.80;;;;;;;1.25;55.58;97682.66;5036730;28;20742;-64
2022/03/05 09:53:00;;;;;;;18.73;9.30;;;;;;;1.35;54.72;97685.84;5030818;28;20505;-67
2022/03/05 09:55:27;;;;;;;17.63;8.93;;;;;;;1.51;54.70;97674.16;5045094;28;20041;-65
2022/03/05 09:57:54;;;;;;;16.50;6.90;;;;;;;1.59;53.45;97672.41;5043720;28;20080;-70
2022/03/05 10:00:20;;;;;;;17.55;8.80;;;;;;;1.63;54.73;97671.84;5054488;28;20882;-66
2022/03/05 10:02:48;;;;;;;18.52;7.68;;;;;;;1.73;54.00;97674.19;5041288;28;20080;-67
2022/03/05 10:05:18;;;;;;;14.68;8.00;;;;;;;1.83;54.33;97673.09;5030997;28;20045;-65
2022/03/05 10:08:13;;;;;;;15.05;7.60;;;;;;;1.87;53.29;97664.50;5031195;28;20044;-64
2022/03/05 10:10:40;;;;;;;14.93;7.63;;;;;;;1.93;52.64;97678.94;5036031;28;20052;-65
2022/03/05 10:13:24;;;;;;;17.25;8.35;;;;;;;1.94;51.83;97670.75;5044543;28;20049;-69
2022/03/05 10:15:54;;;;;;;20.90;8.75;;;;;;;1.86;51.90;97670.88;5025669;28;20037;-65
2022/03/05 10:18:28;;;;;;;20.95;11.10;;;;;;;2.02;51.89;97671.63;5026508;28;20041;-70
2022/03/05 10:20:54;;;;;;;17.88;7.72;;;;;;;2.08;51.49;97673.56;5025790;28;20037;-65
2022/03/05 10:23:21;;;;;;;16.88;8.60;;;;;;;2.09;50.67;97672.53;5027554;28;20390;-70
2022/03/05 10:25:50;;;;;;;13.70;6.93;;;;;;;2.24;50.49;97674.34;5028640;28;20041;-68
2022/03/05 10:28:20;;;;;;;19.67;7.93;;;;;;;2.05;50.99;97668.59;5053685;28;20068;-68
2022/03/05 10:30:49;;;;;;;13.73;7.32;;;;;;;2.24;51.37;97666.31;5031304;28;20567;-65
2022/03/05 10:33:31;;;;;;;11.18;6.15;;;;;;;2.32;48.97;97668.88;5046975;28;20119;-68
2022/03/05 10:35:59;;;;;;;;;;;;;;;2.33;48.23;97674.00;5034776;28;20052;-68
2022/03/05 10:38:42;;;;;;;13.18;6.32;;;;;;;2.41;48.25;97672.22;5041211;28;19928;-69
2022/03/05 10:41:09;;;;;;;10.88;5.78;;;;;;;2.46;47.76;97672.47;5026250;28;20636;-68
2022/03/05 10:43:36;;;;;;;16.15;6.78;;;;;;;2.44;47.69;97669.19;5045153;28;20040;-68
2022/03/05 10:46:03;;;;;;;13.63;7.65;;;;;;;2.37;47.84;97669.13;5033328;28;20068;-69
2022/03/05 10:48:32;;;;;;;13.07;6.18;;;;;;;2.49;47.38;97671.25;5045758;28;20045;-68
2022/03/05 10:51:09;;;;;;;12.10;5.60;;;;;;;2.70;47.24;97662.38;5030967;28;20047;-68
2022/03/05 10:53:47;;;;;;;10.00;5.43;;;;;;;2.87;46.85;97662.91;5038060;28;20028;-66
2022/03/05 10:56:25;;;;;;;10.93;5.72;;;;;;;2.91;45.94;97664.19;5042805;28;20064;-70
2022/03/05 10:59:09;;;;;;;13.85;6.05;;;;;;;2.90;44.98;97654.50;5043181;28;20556;-70
2022/03/05 11:01:43;;;;;;;13.80;7.35;;;;;;;2.94;44.41;97655.78;5035978;28;20076;-67
2022/03/05 11:04:11;;;;;;;12.57;5.30;;;;;;;2.95;44.40;97651.25;5035512;28;20052;-68
2022/03/05 11:06:40;;;;;;;15.13;7.05;;;;;;;3.06;44.18;97642.66;5028588;28;20041;-65
2022/03/05 11:09:11;;;;;;;14.00;6.05;;;;;;;2.92;43.51;97654.31;5034908;28;20530;-66
2022/03/05 11:11:40;;;;;;;13.75;5.88;;;;;;;2.99;44.01;97653.31;5042112;28;20046;-67
2022/03/05 11:14:10;;;;;;;12.30;6.63;;;;;;;2.90;43.30;97654.50;5035186;28;20041;-69
2022/03/05 11:16:37;;;;;;;14.15;6.13;;;;;;;3.09;43.37;97649.47;5036888;28;20047;-67
2022/03/05 11:19:03;;;;;;;10.98;5.05;;;;;;;3.16;42.88;97653.00;5030585;28;20052;-65
2022/03/05 11:21:30;;;;;;;11.93;5.68;;;;;;;3.25;43.45;97651.81;5032953;28;20045;-66
2022/03/05 11:23:57;;;;;;;9.38;5.55;;;;;;;3.32;43.40;97645.69;5031279;28;20037;-69
2022/03/05 11:26:25;;;;;;;13.52;6.13;;;;;;;3.25;43.33;97649.16;5039251;28;20060;-66
2022/03/05 11:29:08;;;;;;;12.02;6.60;;;;;;;3.21;43.69;97639.88;5040048;28;20045;-66
2022/03/05 11:31:35;;;;;;;13.48;6.40;;;;;;;3.41;44.05;97643.66;5043489;28;20037;-64